createdAt,value
2023-02-14T11:18:24.851Z,26.92
2023-02-14T11:22:31.078Z,30.67
2023-02-14T11:26:35.012Z,25.45
2023-02-14T11:30:41.237Z,28.92
2023-02-14T11:34:53.833Z,20.20
2023-02-14T11:39:02.361Z,24.58
2023-02-14T11:43:14.606Z,25.60
2023-02-14T11:47:24.629Z,30.50
2023-02-14T11:51:43.058Z,24.77
2023-02-14T11:55:44.605Z,25.75
2023-02-14T11:59:51.027Z,26.02
2023-02-14T12:03:55.499Z,25.58
2023-02-14T12:07:59.936Z,26.13
2023-02-14T12:12:16.112Z,26.27
2023-02-14T12:16:28.247Z,26.08
2023-02-14T12:20:57.326Z,24.08
2023-02-14T12:25:21.405Z,22.75
2023-02-14T12:29:27.900Z,26.35
2023-02-14T12:33:29.652Z,24.63
2023-02-14T12:37:48.750Z,30.73
2023-02-14T12:41:52.094Z,29.42
2023-02-14T12:46:08.755Z,27.25
2023-02-14T12:50:48.036Z,31.38
2023-02-14T12:54:55.633Z,21.55
2023-02-14T12:59:14.281Z,23.50
2023-02-14T13:03:45.355Z,28.05
2023-02-14T13:08:23.827Z,26.50
2023-02-14T13:12:31.148Z,27.67
2023-02-14T13:16:49.496Z,30.90
2023-02-14T13:25:03.749Z,27.55
2023-02-14T13:29:10.912Z,29.92
2023-02-14T13:33:25.214Z,27.10
2023-02-14T13:37:28.384Z,24.35
2023-02-14T13:41:30.683Z,27.70
2023-02-14T13:45:32.056Z,25.15
2023-02-14T13:49:38.524Z,23.40
2023-02-14T13:53:48.522Z,26.85
2023-02-14T13:58:06.304Z,21.55
2023-02-14T14:02:31.775Z,23.02
2023-02-14T14:07:01.167Z,26.83
2023-02-14T14:11:13.189Z,26.50
2023-02-14T14:15:16.911Z,23.25
2023-02-14T14:19:21.857Z,24.95
2023-02-14T14:23:30.961Z,26.67
2023-02-14T14:27:46.142Z,24.07
2023-02-14T14:31:55.195Z,25.83
2023-02-14T14:35:58.597Z,23.10
2023-02-14T14:40:03.747Z,27.25
2023-02-14T14:44:06.606Z,24.58
2023-02-14T14:48:12.567Z,21.92
2023-02-14T14:52:46.520Z,22.52
2023-02-14T14:57:01.475Z,19.85
2023-02-14T15:01:04.345Z,19.17
2023-02-14T15:05:25.831Z,19.77
2023-02-14T15:09:36.108Z,25.85
2023-02-14T15:13:53.803Z,22.95
2023-02-14T15:17:55.935Z,21.98
2023-02-14T15:21:57.589Z,22.23
2023-02-14T15:25:59.228Z,23.00
2023-02-14T15:30:04.855Z,23.30
2023-02-14T15:34:06.836Z,23.73
2023-02-14T15:38:11.993Z,23.20
2023-02-14T15:42:25.654Z,24.13
2023-02-14T15:46:39.203Z,26.45
2023-02-14T15:50:50.154Z,22.75
2023-02-14T15:54:51.678Z,23.17
2023-02-14T15:59:02.781Z,26.80
2023-02-14T16:03:07.642Z,26.88
2023-02-14T16:07:35.410Z,31.58
2023-02-14T16:11:38.591Z,26.48
2023-02-14T16:15:55.283Z,23.45
2023-02-14T16:19:56.717Z,23.65
2023-02-14T16:24:07.243Z,29.65
2023-02-14T16:28:08.794Z,22.13
2023-02-14T16:32:16.839Z,28.20
2023-02-14T16:36:24.430Z,22.55
2023-02-14T16:40:28.681Z,28.42
2023-02-14T16:44:30.971Z,30.52
2023-02-14T16:48:32.410Z,29.30
2023-02-14T16:52:34.639Z,28.08
2023-02-14T16:56:38.706Z,30.55
2023-02-14T17:00:40.159Z,23.88
2023-02-14T17:04:41.879Z,28.15
2023-02-14T17:08:43.770Z,26.92
2023-02-14T17:12:48.294Z,25.42
2023-02-14T17:16:50.483Z,27.73
2023-02-14T17:20:52.039Z,28.98
2023-02-14T17:24:54.647Z,28.45
2023-02-14T17:28:57.610Z,30.77
2023-02-14T17:32:59.126Z,26.08
2023-02-14T17:37:00.612Z,28.85
2023-02-14T17:41:16.859Z,28.48
2023-02-14T17:45:18.352Z,29.65
2023-02-14T17:49:19.845Z,25.20
2023-02-14T17:53:21.376Z,31.55
2023-02-14T17:57:22.854Z,28.58
2023-02-14T18:01:27.151Z,26.95
2023-02-14T18:05:28.703Z,32.10
2023-02-14T18:09:30.714Z,29.33
2023-02-14T18:13:32.309Z,35.53
2023-02-14T18:17:33.847Z,36.00
2023-02-14T18:21:39.859Z,29.05
2023-02-14T18:25:49.301Z,34.50
2023-02-14T18:29:50.873Z,35.35
2023-02-14T18:33:52.652Z,32.63
2023-02-14T18:37:54.084Z,30.85
2023-02-14T18:41:59.793Z,32.03
2023-02-14T18:46:10.164Z,35.33
2023-02-14T18:50:11.807Z,29.83
2023-02-14T18:54:13.226Z,30.83
2023-02-14T18:58:14.652Z,31.88
2023-02-14T19:02:16.611Z,32.90
2023-02-14T19:06:19.136Z,31.67
2023-02-14T19:10:20.610Z,32.17
2023-02-14T19:14:22.050Z,33.22
2023-02-14T19:18:25.634Z,38.67
2023-02-14T19:22:27.178Z,31.70
2023-02-14T19:26:37.059Z,31.25
2023-02-14T19:34:39.892Z,31.77
2023-02-14T19:38:43.546Z,33.75
2023-02-14T19:42:45.258Z,31.55
2023-02-14T19:46:47.716Z,35.17
2023-02-14T19:50:50.129Z,31.52
2023-02-14T19:54:51.547Z,34.65
2023-02-14T19:58:53.583Z,32.08
2023-02-14T20:02:55.068Z,34.97
2023-02-14T20:06:57.024Z,34.35
2023-02-14T20:10:58.832Z,33.67
2023-02-14T20:15:00.484Z,32.70
2023-02-14T20:19:08.732Z,35.08
2023-02-14T20:23:10.460Z,32.65
2023-02-14T20:27:12.008Z,34.40
2023-02-14T20:31:16.207Z,40.38
2023-02-14T20:35:17.665Z,31.00
2023-02-14T20:39:21.427Z,36.00
2023-02-14T20:43:25.871Z,37.55
2023-02-14T20:47:28.626Z,33.47
2023-02-14T20:51:30.167Z,32.03
2023-02-14T20:55:31.709Z,33.95
2023-02-14T20:59:33.240Z,29.92
2023-02-14T21:03:36.265Z,34.35
2023-02-14T21:07:38.194Z,29.83
2023-02-14T21:11:39.651Z,30.30
2023-02-14T21:15:41.192Z,26.40
2023-02-14T21:19:42.664Z,26.20
2023-02-14T21:23:44.389Z,30.02
2023-02-14T21:27:46.735Z,32.70
2023-02-14T21:31:48.332Z,29.25
2023-02-14T21:35:49.824Z,27.67
2023-02-14T21:39:51.268Z,27.33
2023-02-14T21:43:54.104Z,25.73
2023-02-14T21:48:13.820Z,26.77
2023-02-14T21:52:15.381Z,25.80
2023-02-14T21:56:19.822Z,28.50
2023-02-14T22:00:22.609Z,28.20
2023-02-14T22:04:24.537Z,23.73
2023-02-14T22:08:25.943Z,30.95
2023-02-14T22:12:28.537Z,26.00
2023-02-14T22:16:29.991Z,26.40
2023-02-14T22:20:31.837Z,29.02
2023-02-14T22:24:33.319Z,28.33
2023-02-14T22:28:34.781Z,27.50
2023-02-14T22:32:36.246Z,29.98
2023-02-14T22:36:37.760Z,27.52
2023-02-14T22:40:39.171Z,30.50
2023-02-14T22:44:40.604Z,33.40
2023-02-14T22:48:42.115Z,25.25
2023-02-14T22:52:43.564Z,31.15
2023-02-14T22:56:47.621Z,33.80
2023-02-14T23:00:49.076Z,28.50
2023-02-14T23:04:50.982Z,30.05
2023-02-14T23:08:53.636Z,29.63
2023-02-14T23:13:13.565Z,32.80
2023-02-14T23:17:16.083Z,29.13
2023-02-14T23:21:35.929Z,31.02
2023-02-14T23:25:37.332Z,30.30
2023-02-14T23:29:38.801Z,33.58
2023-02-14T23:33:40.196Z,29.13
2023-02-14T23:37:41.789Z,28.67
2023-02-14T23:41:51.994Z,31.27
2023-02-14T23:45:53.510Z,37.05
2023-02-14T23:49:54.950Z,29.88
2023-02-14T23:53:56.423Z,29.17
2023-02-14T23:57:57.848Z,27.55
